createdAt,value
2023-03-24T00:02:43.064Z,56.49
2023-03-24T00:05:46.265Z,56.53
2023-03-24T00:08:49.412Z,56.54
2023-03-24T00:11:52.464Z,56.57
2023-03-24T00:14:55.691Z,56.60
2023-03-24T00:17:59.218Z,56.62
2023-03-24T00:21:02.251Z,56.65
2023-03-24T00:24:09.408Z,56.68
2023-03-24T00:27:17.615Z,56.73
2023-03-24T00:30:21.097Z,56.80
2023-03-24T00:33:25.368Z,56.84
2023-03-24T00:36:29.584Z,56.86
2023-03-24T00:39:33.348Z,56.90
2023-03-24T00:42:37.045Z,56.94
2023-03-24T00:45:46.248Z,56.97
2023-03-24T00:48:51.227Z,57.01
2023-03-24T00:51:54.332Z,57.06
2023-03-24T00:54:58.349Z,57.11
2023-03-24T00:58:02.712Z,57.16
2023-03-24T01:01:06.882Z,57.21
2023-03-24T01:04:10.624Z,57.25
2023-03-24T01:07:18.282Z,57.32
2023-03-24T01:10:26.505Z,57.46
2023-03-24T01:13:30.362Z,57.57
2023-03-24T01:16:33.432Z,57.63
2023-03-24T01:19:36.510Z,57.72
2023-03-24T01:22:40.403Z,57.77
2023-03-24T01:25:45.513Z,57.83
2023-03-24T01:28:48.565Z,57.89
2023-03-24T01:31:51.837Z,57.92
2023-03-24T01:34:54.834Z,57.93
2023-03-24T01:37:58.902Z,57.97
2023-03-24T01:41:02.782Z,58.03
2023-03-24T01:44:24.354Z,58.10
2023-03-24T01:47:27.522Z,58.14
2023-03-24T01:50:31.535Z,58.21
2023-03-24T01:53:37.376Z,58.25
2023-03-24T01:56:42.923Z,58.28
2023-03-24T01:59:48.563Z,58.29
2023-03-24T02:03:18.459Z,58.32
2023-03-24T02:06:26.267Z,58.35
2023-03-24T02:09:29.985Z,58.39
2023-03-24T02:12:33.650Z,58.41
2023-03-24T02:15:58.221Z,58.44
2023-03-24T02:19:15.045Z,58.48
2023-03-24T02:22:18.213Z,58.51
2023-03-24T02:25:37.779Z,58.52
2023-03-24T02:28:41.161Z,58.54
2023-03-24T02:31:54.987Z,58.60
2023-03-24T02:35:18.262Z,58.62
2023-03-24T02:38:39.785Z,58.68
2023-03-24T02:41:54.061Z,58.71
2023-03-24T02:45:16.611Z,58.70
2023-03-24T02:48:22.861Z,58.73
2023-03-24T02:51:44.312Z,58.74
2023-03-24T02:54:55.792Z,58.75
2023-03-24T02:58:03.618Z,58.81
2023-03-24T03:01:32.787Z,58.87
2023-03-24T03:05:03.381Z,58.90
2023-03-24T03:08:09.472Z,58.91
2023-03-24T03:11:14.404Z,58.94
2023-03-24T03:14:20.539Z,58.96
2023-03-24T03:17:30.653Z,58.99
2023-03-24T03:20:38.454Z,58.99
2023-03-24T03:23:45.898Z,58.98
2023-03-24T03:26:50.109Z,59.01
2023-03-24T03:29:54.890Z,59.05
2023-03-24T03:33:03.590Z,59.09
2023-03-24T03:36:10.841Z,59.13
2023-03-24T03:39:22.461Z,59.19
2023-03-24T03:42:25.784Z,59.29
2023-03-24T03:45:29.259Z,59.35
2023-03-24T03:48:32.800Z,59.44
2023-03-24T03:51:35.975Z,59.47
2023-03-24T03:54:40.354Z,59.47
2023-03-24T03:57:43.553Z,59.57
2023-03-24T04:00:55.968Z,59.67
2023-03-24T04:04:33.332Z,59.76
2023-03-24T04:08:05.920Z,59.89
2023-03-24T04:11:31.789Z,60.03
2023-03-24T04:15:02.177Z,60.19
2023-03-24T04:18:05.173Z,60.41
2023-03-24T04:21:33.525Z,60.61
2023-03-24T04:24:41.002Z,60.71
2023-03-24T04:27:46.482Z,60.83
2023-03-24T04:30:56.117Z,61.01
2023-03-24T04:34:05.314Z,61.11
2023-03-24T04:37:12.474Z,61.12
2023-03-24T04:40:33.633Z,61.12
2023-03-24T04:43:37.474Z,61.14
2023-03-24T04:46:42.035Z,61.25
2023-03-24T04:49:51.953Z,61.36
2023-03-24T04:52:56.545Z,61.32
2023-03-24T04:56:02.531Z,61.37
2023-03-24T04:59:24.544Z,61.53
2023-03-24T05:02:27.526Z,61.55
2023-03-24T05:05:36.766Z,61.53
2023-03-24T05:08:40.679Z,61.58
2023-03-24T05:11:44.229Z,61.73
2023-03-24T05:14:47.254Z,61.80
2023-03-24T05:17:51.750Z,61.91
2023-03-24T05:20:55.145Z,61.92
2023-03-24T05:23:58.240Z,61.95
2023-03-24T05:27:01.366Z,62.03
2023-03-24T05:30:06.439Z,62.10
2023-03-24T05:33:09.922Z,62.20
2023-03-24T05:36:12.954Z,62.39
2023-03-24T05:39:16.675Z,62.48
2023-03-24T05:42:26.307Z,62.55
2023-03-24T05:45:30.391Z,62.67
2023-03-24T05:48:33.981Z,62.81
2023-03-24T05:51:52.071Z,62.97
2023-03-24T05:54:55.088Z,63.00
2023-03-24T05:58:04.904Z,63.06
2023-03-24T06:01:29.002Z,63.22
2023-03-24T06:04:36.652Z,63.32
2023-03-24T06:07:45.090Z,63.49
2023-03-24T06:10:48.532Z,63.64
2023-03-24T06:13:51.815Z,63.80
2023-03-24T06:16:59.303Z,63.91
2023-03-24T06:20:05.721Z,64.04
2023-03-24T06:23:35.697Z,64.19
2023-03-24T06:26:50.098Z,64.34
2023-03-24T06:29:53.408Z,64.33
2023-03-24T06:32:57.396Z,64.53
2023-03-24T06:36:01.931Z,64.57
2023-03-24T06:39:06.167Z,64.59
2023-03-24T06:42:09.385Z,64.62
2023-03-24T06:45:12.437Z,64.69
2023-03-24T06:48:15.579Z,64.70
2023-03-24T06:51:18.703Z,64.73
2023-03-24T06:54:22.321Z,64.82
2023-03-24T06:57:25.451Z,64.84
2023-03-24T07:00:55.327Z,64.86
2023-03-24T07:04:25.816Z,64.98
2023-03-24T07:08:23.532Z,65.01
2023-03-24T07:11:12.706Z,65.07
2023-03-24T07:14:22.180Z,65.12
2023-03-24T07:17:25.700Z,65.17
2023-03-24T07:20:51.767Z,65.19
2023-03-24T07:23:56.868Z,65.17
2023-03-24T07:27:12.379Z,65.33
2023-03-24T07:30:15.562Z,65.35
2023-03-24T07:33:20.929Z,65.39
2023-03-24T07:36:23.904Z,65.43
2023-03-24T07:39:28.007Z,65.43
2023-03-24T07:42:31.551Z,65.52
2023-03-24T07:45:53.102Z,65.53
2023-03-24T07:48:58.081Z,65.49
2023-03-24T07:52:06.651Z,65.53
2023-03-24T07:55:13.878Z,65.50
2023-03-24T07:58:35.430Z,65.39
2023-03-24T08:01:54.877Z,65.45
2023-03-24T08:05:29.724Z,65.56
2023-03-24T08:08:55.779Z,65.38
2023-03-24T08:12:00.591Z,65.32
2023-03-24T08:15:10.227Z,65.26
2023-03-24T08:18:13.256Z,65.13
2023-03-24T08:21:16.672Z,65.10
2023-03-24T08:24:20.039Z,65.15
2023-03-24T08:27:23.537Z,65.04
2023-03-24T08:30:28.322Z,64.87
2023-03-24T08:33:32.060Z,64.71
2023-03-24T08:36:35.109Z,64.59
2023-03-24T08:39:38.380Z,64.47
2023-03-24T08:42:41.581Z,64.40
2023-03-24T08:45:44.546Z,64.37
2023-03-24T08:48:47.517Z,64.32
2023-03-24T08:51:50.807Z,64.23
2023-03-24T08:54:54.064Z,64.08
2023-03-24T08:57:57.609Z,64.01
2023-03-24T09:01:01.656Z,63.93
2023-03-24T09:04:05.562Z,63.88
2023-03-24T09:07:09.277Z,63.83
2023-03-24T09:10:12.797Z,63.76
2023-03-24T09:13:16.625Z,63.58
2023-03-24T09:16:20.045Z,63.37
2023-03-24T09:19:23.102Z,63.20
2023-03-24T09:22:26.067Z,62.98
2023-03-24T09:25:29.057Z,62.73
2023-03-24T09:28:32.118Z,62.41
2023-03-24T09:31:35.099Z,61.97
2023-03-24T09:34:38.414Z,61.67
2023-03-24T09:37:43.397Z,61.52
2023-03-24T09:42:54.510Z,60.00
2023-03-24T09:46:00.576Z,59.08
2023-03-24T09:49:05.184Z,58.58
2023-03-24T09:52:12.679Z,58.13
2023-03-24T09:55:25.326Z,57.83
2023-03-24T09:58:31.433Z,57.26
2023-03-24T10:01:36.415Z,56.70
2023-03-24T10:04:39.651Z,56.31
2023-03-24T10:07:57.053Z,56.06
2023-03-24T10:11:54.343Z,56.03
2023-03-24T10:14:57.496Z,55.71
2023-03-24T10:18:11.085Z,55.82
2023-03-24T10:21:25.998Z,55.79
2023-03-24T10:25:08.280Z,55.81
2023-03-24T10:28:49.824Z,56.06
2023-03-24T10:32:24.731Z,55.75
2023-03-24T10:35:33.173Z,55.67
2023-03-24T10:38:37.010Z,55.80
2023-03-24T10:41:42.383Z,55.93
2023-03-24T10:44:48.915Z,55.64
2023-03-24T10:47:54.873Z,56.02
2023-03-24T10:50:59.026Z,56.28
2023-03-24T10:54:22.870Z,56.00
2023-03-24T10:57:27.530Z,55.84
2023-03-24T11:00:32.441Z,55.46
2023-03-24T11:03:38.113Z,55.20
2023-03-24T11:06:57.360Z,54.76
2023-03-24T11:10:27.404Z,54.53
2023-03-24T11:13:34.881Z,53.85
2023-03-24T11:16:43.676Z,53.41
2023-03-24T11:19:54.885Z,52.87
2023-03-24T11:23:07.129Z,52.86
2023-03-24T11:26:59.009Z,52.53
2023-03-24T11:30:02.336Z,52.48
2023-03-24T11:33:05.625Z,51.82
2023-03-24T11:36:30.537Z,51.29
2023-03-24T11:39:35.468Z,50.86
2023-03-24T11:42:46.043Z,50.61
2023-03-24T11:46:01.233Z,50.41
2023-03-24T11:49:06.841Z,50.45
2023-03-24T11:52:21.399Z,50.03
2023-03-24T11:56:12.093Z,49.65
2023-03-24T11:59:31.573Z,49.54
2023-03-24T12:03:07.386Z,49.08
2023-03-24T12:06:34.082Z,49.15
2023-03-24T12:09:57.474Z,48.96
2023-03-24T12:13:29.963Z,48.92
2023-03-24T12:16:53.873Z,48.89
2023-03-24T12:20:09.225Z,49.17
2023-03-24T12:23:20.559Z,49.31
2023-03-24T12:26:31.097Z,49.40
2023-03-24T12:30:30.843Z,49.29
2023-03-24T12:34:24.532Z,49.46
2023-03-24T12:38:05.959Z,49.87
2023-03-24T12:41:44.194Z,49.84
2023-03-24T12:45:10.456Z,50.07
2023-03-24T12:48:31.926Z,50.19
2023-03-24T12:51:57.617Z,50.33
2023-03-24T12:55:10.449Z,50.61
2023-03-24T12:58:43.892Z,50.63
2023-03-24T13:01:55.839Z,50.82
2023-03-24T13:05:07.178Z,51.05
2023-03-24T13:08:18.700Z,51.24
2023-03-24T13:11:33.784Z,51.30
2023-03-24T13:15:00.084Z,51.48
2023-03-24T13:18:09.544Z,51.55
2023-03-24T13:21:21.675Z,51.64
2023-03-24T13:24:26.308Z,51.81
2023-03-24T13:27:36.446Z,51.97
2023-03-24T13:30:42.214Z,52.10
2023-03-24T13:33:45.986Z,52.48
2023-03-24T13:36:53.014Z,53.07
2023-03-24T13:40:00.225Z,53.13
2023-03-24T13:43:18.762Z,53.20
2023-03-24T13:46:22.280Z,53.54
2023-03-24T13:49:26.321Z,53.89
2023-03-24T13:52:37.666Z,53.92
2023-03-24T13:55:49.567Z,54.00
2023-03-24T13:58:55.752Z,53.86
2023-03-24T14:02:17.681Z,54.22
2023-03-24T14:05:26.665Z,54.50
2023-03-24T14:08:55.923Z,54.63
2023-03-24T14:11:59.064Z,54.70
2023-03-24T14:15:41.250Z,54.55
2023-03-24T14:18:44.555Z,54.73
2023-03-24T14:22:10.640Z,54.75
2023-03-24T14:25:16.611Z,55.02
2023-03-24T14:28:31.907Z,55.39
2023-03-24T14:31:36.665Z,55.54
2023-03-24T14:34:51.237Z,55.83
2023-03-24T14:38:00.045Z,56.01
2023-03-24T14:41:13.002Z,56.07
2023-03-24T14:44:45.045Z,56.05
2023-03-24T14:47:48.782Z,56.50
2023-03-24T14:50:54.400Z,56.57
2023-03-24T14:53:58.476Z,56.47
2023-03-24T14:57:03.212Z,56.27
2023-03-24T15:00:15.902Z,55.62
2023-03-24T15:03:24.252Z,55.06
2023-03-24T15:06:27.706Z,54.55
2023-03-24T15:09:30.892Z,53.86
2023-03-24T15:12:34.266Z,53.37
2023-03-24T15:15:37.503Z,53.02
2023-03-24T15:22:05.976Z,52.75
2023-03-24T15:25:10.256Z,53.08
2023-03-24T15:28:28.997Z,53.41
2023-03-24T15:31:33.101Z,53.59
2023-03-24T15:34:41.069Z,53.97
2023-03-24T15:37:48.482Z,54.43
2023-03-24T15:40:57.867Z,54.34
2023-03-24T15:44:01.093Z,54.61
2023-03-24T15:47:06.354Z,54.57
2023-03-24T15:50:33.802Z,54.85
2023-03-24T15:53:49.515Z,55.20
2023-03-24T15:57:12.296Z,55.51
2023-03-24T16:00:24.757Z,56.04
2023-03-24T16:03:30.555Z,56.60
2023-03-24T16:06:36.184Z,57.30
2023-03-24T16:09:41.054Z,57.39
2023-03-24T16:12:44.222Z,57.49
2023-03-24T16:16:13.582Z,57.46
2023-03-24T16:19:16.815Z,57.33
2023-03-24T16:22:19.946Z,57.69
2023-03-24T16:25:23.452Z,58.36
2023-03-24T16:28:27.739Z,58.54
2023-03-24T16:31:33.633Z,58.84
2023-03-24T16:34:37.252Z,59.40
2023-03-24T16:37:42.117Z,59.66
2023-03-24T16:40:49.199Z,59.85
2023-03-24T16:43:55.550Z,60.17
2023-03-24T16:47:02.032Z,60.43
2023-03-24T16:50:26.108Z,60.53
2023-03-24T16:53:29.192Z,60.63
2023-03-24T16:56:32.385Z,60.71
2023-03-24T16:59:35.562Z,60.90
2023-03-24T17:02:39.938Z,61.15
2023-03-24T17:05:53.085Z,61.17
2023-03-24T17:08:56.765Z,61.19
2023-03-24T17:12:02.565Z,61.34
2023-03-24T17:15:07.820Z,61.54
2023-03-24T17:18:11.800Z,61.68
2023-03-24T17:21:18.662Z,61.79
2023-03-24T17:24:29.338Z,61.94
2023-03-24T17:27:33.499Z,61.95
2023-03-24T17:30:36.582Z,62.12
2023-03-24T17:33:41.115Z,62.17
2023-03-24T17:36:44.769Z,62.33
2023-03-24T17:39:48.939Z,62.32
2023-03-24T17:42:52.963Z,62.41
2023-03-24T17:46:01.300Z,62.49
2023-03-24T17:49:04.757Z,62.48
2023-03-24T17:52:07.843Z,62.49
2023-03-24T17:55:12.787Z,62.58
2023-03-24T17:58:17.743Z,62.64
2023-03-24T18:01:30.802Z,62.55
2023-03-24T18:04:36.367Z,62.60
2023-03-24T18:07:40.357Z,62.66
2023-03-24T18:10:43.845Z,62.62
2023-03-24T18:13:47.025Z,62.57
2023-03-24T18:16:50.380Z,62.56
2023-03-24T18:19:53.549Z,62.54
2023-03-24T18:22:56.683Z,62.52
2023-03-24T18:26:01.528Z,62.53
2023-03-24T18:29:05.850Z,62.52
2023-03-24T18:32:09.098Z,62.53
2023-03-24T18:35:16.356Z,62.62
2023-03-24T18:38:23.835Z,62.68
2023-03-24T18:41:29.905Z,62.77
2023-03-24T18:44:33.321Z,62.79
2023-03-24T18:47:36.710Z,62.85
2023-03-24T18:50:40.731Z,62.99
2023-03-24T18:53:44.092Z,63.09
2023-03-24T18:56:47.259Z,63.11
2023-03-24T18:59:50.758Z,63.22
2023-03-24T19:02:54.074Z,63.29
2023-03-24T19:06:00.929Z,63.40
2023-03-24T19:09:05.449Z,63.43
2023-03-24T19:12:09.216Z,63.56
2023-03-24T19:15:13.626Z,63.70
2023-03-24T19:18:16.893Z,63.85
2023-03-24T19:21:24.497Z,63.91
2023-03-24T19:24:28.135Z,64.12
2023-03-24T19:27:31.358Z,64.20
2023-03-24T19:30:34.451Z,64.25
2023-03-24T19:33:38.129Z,64.34
2023-03-24T19:36:41.738Z,64.44
2023-03-24T19:39:46.071Z,64.54
2023-03-24T19:42:49.170Z,64.68
2023-03-24T19:45:54.019Z,64.77
2023-03-24T19:48:57.127Z,64.81
2023-03-24T19:52:00.362Z,64.90
2023-03-24T19:55:06.577Z,64.96
2023-03-24T19:58:09.735Z,65.04
2023-03-24T20:01:13.129Z,65.11
2023-03-24T20:04:17.033Z,65.21
2023-03-24T20:07:20.351Z,65.29
2023-03-24T20:10:23.811Z,65.35
2023-03-24T20:13:27.691Z,65.33
2023-03-24T20:16:31.501Z,65.47
2023-03-24T20:19:34.608Z,65.58
2023-03-24T20:22:42.209Z,65.68
2023-03-24T20:25:45.323Z,65.75
2023-03-24T20:28:48.658Z,65.84
2023-03-24T20:31:52.403Z,65.92
2023-03-24T20:34:55.640Z,66.00
2023-03-24T20:37:58.760Z,66.11
2023-03-24T20:41:05.708Z,66.19
2023-03-24T20:44:09.166Z,66.31
2023-03-24T20:47:12.226Z,66.43
2023-03-24T20:50:15.390Z,66.42
2023-03-24T20:53:18.939Z,66.52
2023-03-24T20:56:22.453Z,66.69
2023-03-24T20:59:26.209Z,66.78
2023-03-24T21:02:31.786Z,66.80
2023-03-24T21:05:35.259Z,66.85
2023-03-24T21:08:38.356Z,66.91
2023-03-24T21:11:41.523Z,67.00
2023-03-24T21:14:46.817Z,67.07
2023-03-24T21:17:50.287Z,67.13
2023-03-24T21:20:56.366Z,67.14
2023-03-24T21:24:00.842Z,67.13
2023-03-24T21:27:04.056Z,67.23
2023-03-24T21:30:08.237Z,67.25
2023-03-24T21:33:11.829Z,67.28
2023-03-24T21:36:15.685Z,67.31
2023-03-24T21:39:18.798Z,67.35
2023-03-24T21:42:22.864Z,67.34
2023-03-24T21:45:27.670Z,67.38
2023-03-24T21:48:32.939Z,67.46
2023-03-24T21:51:36.946Z,67.49
2023-03-24T21:54:40.205Z,67.59
2023-03-24T21:57:48.186Z,67.69
2023-03-24T22:00:52.058Z,67.83
2023-03-24T22:03:55.976Z,67.93
2023-03-24T22:06:59.203Z,68.12
2023-03-24T22:10:03.330Z,68.27
2023-03-24T22:13:06.371Z,68.40
2023-03-24T22:16:10.033Z,68.47
2023-03-24T22:19:13.178Z,68.62
2023-03-24T22:22:16.330Z,68.75
2023-03-24T22:25:20.014Z,68.87
2023-03-24T22:28:23.091Z,68.93
2023-03-24T22:31:26.396Z,68.98
2023-03-24T22:34:29.528Z,69.01
2023-03-24T22:37:33.490Z,69.13
2023-03-24T22:40:37.846Z,69.19
2023-03-24T22:43:41.884Z,69.18
2023-03-24T22:46:45.343Z,69.24
2023-03-24T22:49:48.440Z,69.27
2023-03-24T22:52:51.787Z,69.33
2023-03-24T22:55:54.956Z,69.34
2023-03-24T22:58:58.104Z,69.36
2023-03-24T23:02:09.232Z,69.39
2023-03-24T23:05:13.500Z,69.34
2023-03-24T23:08:16.698Z,69.28
2023-03-24T23:11:19.901Z,69.16
2023-03-24T23:14:25.530Z,69.11
2023-03-24T23:17:28.728Z,69.12
2023-03-24T23:20:31.895Z,69.20
2023-03-24T23:23:36.375Z,69.17
2023-03-24T23:26:39.492Z,69.16
2023-03-24T23:29:42.597Z,69.35
2023-03-24T23:32:47.064Z,69.49
2023-03-24T23:35:56.202Z,69.57
2023-03-24T23:38:59.353Z,69.59
2023-03-24T23:42:03.371Z,69.60
2023-03-24T23:45:07.648Z,69.62
2023-03-24T23:48:10.967Z,69.61
2023-03-24T23:51:14.372Z,69.60
2023-03-24T23:54:17.535Z,69.57
2023-03-24T23:57:20.683Z,69.61
